Detroit, Oregon
Current Conditions -  °F | °C
As of 12:56 PM on Thursday 18 Dec 2014 (Local Time) from KSLE Reporting Station
Overcast Overcast  
Wind Chill: 52°   Ceiling: 3500
Heat Index: 52°   Visibility: 10mi
Dew Point: 45°   Wind: 13mph
Humidity: 77%   Direction: 180°S
Pressure: 29.87"   Gusts: NA
Location:  44.73°N, 122.15°W
Report Text: KSLE 182056Z 18011KT 10SM BKN035 OVC085 11/07 A2987 RMK AO2 SLP115 60000 T01110072 58025
Loading
Personal Weather Stations






























Interactive Weather Map New forecast layout! Learn more

10-Day Weather Forecast

Advertisements
Track Severe Weather on mobile